Chembulk Gibraltar — 9VFA5 — position and weather

sailwx.info

Track history (hours):
 
Tides and Currents Weather Stations Pressure Air Temp Water Temp Dewpoint Dewpoint Depression Visibility Wind Speed Wind Dir Waves Ship Positions

Chembulk Gibraltar

Last reported at 2014-Sep-12 04:11 UTC. Time now 2014-Sep-22 04:19 UTC.
Position S 34°37' W 058°18'.
Warning: this ship's position is 10 days out of date.

Length 143 m; draft 8.1 m.

Type: Ship (hazmat cat B). MMSI: 565722000.

Date/timePositionNaut miles runAvg speedWind from/ knotsBaromVisibWave heightAir tempDewpointWater temp
2014-Sep-12 04:11S 34°37' W 058°18'910.6
2014-Sep-12 03:18S 34°38' W 058°07'911.9
2014-Sep-12 02:34S 34°41' W 057°57'8 7.3
2014-Sep-12 01:31S 34°45' W 057°49'0 0.0
2014-Sep-12 00:31S 34°45' W 057°49'0 0.1
2014-Sep-11 23:31S 34°45' W 057°49'0 0.1
2014-Sep-11 22:31S 34°45' W 057°49'6 5.8
2014-Sep-11 21:33S 34°42' W 057°55'1110.8
2014-Sep-11 20:33S 34°31' W 057°56'1212.4
2014-Sep-11 19:33S 34°19' W 058°01'24 0.5
2014-Sep-09 21:12S 34°42' W 057°53'4 6.4
2014-Sep-09 20:29S 34°44' W 057°48'  
Track history (hours):
 
Tides and Currents Weather Stations Pressure Air Temp Water Temp Dewpoint Dewpoint Depression Visibility Wind Speed Wind Dir Waves Ship Positions

Chembulk Gibraltar

Last reported at 2014-Sep-12 04:11 UTC. Time now 2014-Sep-22 04:19 UTC.
Position S 34°37' W 058°18'.
Warning: this ship's position is 10 days out of date.

Length 143 m; draft 8.1 m.

Type: Ship (hazmat cat B). MMSI: 565722000.

Date/timePositionNaut miles runAvg speedWind from/ knotsBaromVisibWave heightAir tempDewpointWater temp
2014-Sep-12 04:11S 34°37' W 058°18'910.6
2014-Sep-12 03:18S 34°38' W 058°07'911.9
2014-Sep-12 02:34S 34°41' W 057°57'8 7.3
2014-Sep-12 01:31S 34°45' W 057°49'0 0.0
2014-Sep-12 00:31S 34°45' W 057°49'0 0.1
2014-Sep-11 23:31S 34°45' W 057°49'0 0.1
2014-Sep-11 22:31S 34°45' W 057°49'6 5.8
2014-Sep-11 21:33S 34°42' W 057°55'1110.8
2014-Sep-11 20:33S 34°31' W 057°56'1212.4
2014-Sep-11 19:33S 34°19' W 058°01'24 0.5
2014-Sep-09 21:12S 34°42' W 057°53'4 6.4
2014-Sep-09 20:29S 34°44' W 057°48'  

Dump ship's entire track history